Time,TemperatureF,DewpointF,PressureIn,WindDirection,WindDirectionDegrees,WindSpeedMPH,WindSpeedGustMPH,Humidity,HourlyPrecipIn,Conditions,Clouds,dailyrainin,SoftwareType,DateUTC
2013-03-02 00:01:00,35.0,22.0,29.74,ESE,106,0.0,0.0,59,0.00,,,0.00,,2013-03-02 09:01:00,
2013-03-02 00:11:00,35.0,22.0,29.74,ESE,106,0.0,0.0,58,0.00,,,0.00,,2013-03-02 09:11:00,
2013-03-02 00:21:00,35.0,22.0,29.74,ESE,106,0.0,0.0,58,0.00,,,0.00,,2013-03-02 09:21:00,
2013-03-02 00:31:00,35.0,22.0,29.74,ESE,106,0.0,0.0,58,0.00,,,0.00,,2013-03-02 09:31:00,
2013-03-02 00:42:00,35.0,22.0,29.74,ESE,106,0.0,0.0,58,0.00,,,0.00,,2013-03-02 09:42:00,
2013-03-02 00:52:00,36.0,23.0,29.74,ESE,106,0.0,0.0,58,0.00,,,0.00,,2013-03-02 09:52:00,
2013-03-02 01:01:00,35.0,21.0,29.74,ESE,106,0.0,0.0,57,0.00,,,0.00,,2013-03-02 10:01:00,
2013-03-02 01:21:00,34.0,22.0,29.74,ESE,106,0.0,0.0,60,0.00,,,0.00,,2013-03-02 10:21:00,
2013-03-02 01:31:00,33.0,21.0,29.74,ESE,106,0.0,0.0,60,0.00,,,0.00,,2013-03-02 10:31:00,
2013-03-02 01:41:00,33.0,21.0,29.74,ESE,106,0.0,0.0,60,0.00,,,0.00,,2013-03-02 10:41:00,
2013-03-02 01:52:00,33.0,21.0,29.74,ESE,106,0.0,0.0,62,0.00,,,0.00,,2013-03-02 10:52:00,
2013-03-02 02:01:00,33.0,21.0,29.71,ESE,106,0.0,0.0,62,0.00,,,0.00,,2013-03-02 11:01:00,
2013-03-02 02:11:00,33.0,21.0,29.71,ESE,106,0.0,0.0,62,0.00,,,0.00,,2013-03-02 11:11:00,
2013-03-02 02:21:00,33.0,21.0,29.74,ESE,106,0.0,0.0,61,0.00,,,0.00,,2013-03-02 11:21:00,
2013-03-02 02:31:00,32.0,20.0,29.74,ESE,106,0.0,0.0,61,0.00,,,0.00,,2013-03-02 11:31:00,
2013-03-02 02:41:00,32.0,20.0,29.74,ESE,106,0.0,0.0,61,0.00,,,0.00,,2013-03-02 11:41:00,
2013-03-02 02:52:00,31.0,20.0,29.74,ESE,106,1.0,0.0,62,0.00,,,0.00,,2013-03-02 11:52:00,
2013-03-02 03:02:00,32.0,21.0,29.74,ESE,106,1.0,0.0,64,0.00,,,0.00,,2013-03-02 12:02:00,
2013-03-02 03:11:00,32.0,21.0,29.74,ESE,106,1.0,0.0,64,0.00,,,0.00,,2013-03-02 12:11:00,
2013-03-02 03:21:00,32.0,21.0,29.74,ESE,106,0.0,0.0,64,0.00,,,0.00,,2013-03-02 12:21:00,
2013-03-02 03:32:00,31.0,21.0,29.74,ESE,106,0.0,0.0,65,0.00,,,0.00,,2013-03-02 12:32:00,
2013-03-02 03:42:00,31.0,21.0,29.74,ESE,106,0.0,0.0,65,0.00,,,0.00,,2013-03-02 12:42:00,
2013-03-02 03:53:00,31.0,21.0,29.74,ESE,106,0.0,0.0,66,0.00,,,0.00,,2013-03-02 12:53:00,
2013-03-02 04:01:00,31.0,22.0,29.71,ESE,106,0.0,0.0,68,0.00,,,0.00,,2013-03-02 13:01:00,
2013-03-02 04:11:00,31.0,22.0,29.71,ESE,106,0.0,0.0,68,0.00,,,0.00,,2013-03-02 13:11:00,
2013-03-02 04:21:00,31.0,22.0,29.74,ESE,106,0.0,0.0,68,0.00,,,0.00,,2013-03-02 13:21:00,
2013-03-02 04:31:00,31.0,22.0,29.74,ESE,106,0.0,0.0,70,0.00,,,0.00,,2013-03-02 13:31:00,
2013-03-02 04:41:00,31.0,22.0,29.74,ESE,106,0.0,0.0,70,0.00,,,0.00,,2013-03-02 13:41:00,
2013-03-02 04:52:00,31.0,22.0,29.71,ESE,106,0.0,0.0,70,0.00,,,0.00,,2013-03-02 13:52:00,
2013-03-02 05:01:00,30.0,21.0,29.71,ESE,106,0.0,0.0,70,0.00,,,0.00,,2013-03-02 14:01:00,
2013-03-02 05:11:00,30.0,21.0,29.71,ESE,106,0.0,0.0,70,0.00,,,0.00,,2013-03-02 14:11:00,
2013-03-02 05:21:00,30.0,22.0,29.74,ESE,106,0.0,0.0,71,0.00,,,0.00,,2013-03-02 14:21:00,
2013-03-02 05:31:00,31.0,23.0,29.71,ESE,106,0.0,0.0,73,0.00,,,0.00,,2013-03-02 14:31:00,
2013-03-02 05:41:00,31.0,23.0,29.71,ESE,106,0.0,0.0,73,0.00,,,0.00,,2013-03-02 14:41:00,
2013-03-02 05:52:00,32.0,25.0,29.74,ESE,106,0.0,0.0,74,0.00,,,0.00,,2013-03-02 14:52:00,
2013-03-02 06:01:00,33.0,26.0,29.74,ESE,106,0.0,0.0,75,0.00,,,0.00,,2013-03-02 15:01:00,
2013-03-02 06:11:00,33.0,26.0,29.74,ESE,106,0.0,0.0,75,0.00,,,0.00,,2013-03-02 15:11:00,
2013-03-02 06:21:00,33.0,26.0,29.74,ESE,106,0.0,0.0,76,0.00,,,0.00,,2013-03-02 15:21:00,
2013-03-02 06:31:00,33.0,27.0,29.71,ESE,106,0.0,0.0,78,0.00,,,0.00,,2013-03-02 15:31:00,
2013-03-02 06:41:00,33.0,27.0,29.71,ESE,106,0.0,0.0,78,0.00,,,0.00,,2013-03-02 15:41:00,
2013-03-02 06:52:00,34.0,28.0,29.74,ESE,106,0.0,0.0,78,0.00,,,0.00,,2013-03-02 15:52:00,
2013-03-02 07:01:00,34.0,28.0,29.71,ESE,106,0.0,0.0,79,0.00,,,0.00,,2013-03-02 16:01:00,
2013-03-02 07:11:00,34.0,28.0,29.71,ESE,106,0.0,0.0,79,0.00,,,0.00,,2013-03-02 16:11:00,
2013-03-02 07:21:00,34.0,28.0,29.74,ESE,106,0.0,0.0,79,0.00,,,0.00,,2013-03-02 16:21:00,
2013-03-02 07:31:00,35.0,29.0,29.71,ESE,106,0.0,0.0,79,0.00,,,0.00,,2013-03-02 16:31:00,
2013-03-02 07:41:00,35.0,29.0,29.71,ESE,106,0.0,0.0,79,0.00,,,0.00,,2013-03-02 16:41:00,
2013-03-02 07:52:00,35.0,29.0,29.71,ESE,106,0.0,0.0,79,0.00,,,0.00,,2013-03-02 16:52:00,
2013-03-02 08:01:00,36.0,30.0,29.71,ESE,106,1.0,5.0,80,0.00,,,0.00,,2013-03-02 17:01:00,
2013-03-02 08:11:00,36.0,30.0,29.71,ESE,106,1.0,5.0,80,0.00,,,0.00,,2013-03-02 17:11:00,
2013-03-02 08:21:00,36.0,28.0,29.71,ESE,114,3.0,4.0,72,0.00,,,0.00,,2013-03-02 17:21:00,
2013-03-02 08:31:00,37.0,23.0,29.71,ESE,117,4.0,6.0,56,0.00,,,0.00,,2013-03-02 17:31:00,
2013-03-02 08:41:00,37.0,23.0,29.71,ESE,117,4.0,6.0,56,0.00,,,0.00,,2013-03-02 17:41:00,
2013-03-02 08:52:00,37.0,22.0,29.71,ESE,118,5.0,6.0,55,0.00,,,0.00,,2013-03-02 17:52:00,
2013-03-02 09:01:00,37.0,23.0,29.71,ESE,122,5.0,6.0,56,0.00,,,0.00,,2013-03-02 18:01:00,
2013-03-02 09:11:00,37.0,23.0,29.71,ESE,122,5.0,6.0,56,0.00,,,0.00,,2013-03-02 18:11:00,
2013-03-02 09:21:00,37.0,21.0,29.71,SE,128,5.0,5.0,53,0.00,,,0.00,,2013-03-02 18:21:00,
2013-03-02 09:31:00,38.0,22.0,29.71,SE,131,4.0,4.0,52,0.00,,,0.00,,2013-03-02 18:31:00,
2013-03-02 09:41:00,38.0,22.0,29.71,SE,131,4.0,4.0,52,0.00,,,0.00,,2013-03-02 18:41:00,
2013-03-02 09:52:00,38.0,22.0,29.71,SE,126,4.0,6.0,51,0.00,,,0.00,,2013-03-02 18:52:00,
2013-03-02 10:01:00,39.0,18.0,29.71,SE,126,4.0,10.0,42,0.00,,,0.00,,2013-03-02 19:01:00,
2013-03-02 10:21:00,39.0,17.0,29.71,SE,125,6.0,11.0,40,0.00,,,0.00,,2013-03-02 19:21:00,
2013-03-02 10:31:00,40.0,17.0,29.71,ESE,120,6.0,0.0,39,0.00,,,0.00,,2013-03-02 19:31:00,
2013-03-02 10:52:00,41.0,17.0,29.71,SE,126,6.0,8.0,38,0.00,,,0.00,,2013-03-02 19:52:00,
2013-03-02 11:01:00,41.0,17.0,29.71,SE,133,6.0,7.0,38,0.00,,,0.00,,2013-03-02 20:01:00,
2013-03-02 11:21:00,40.0,17.0,29.74,SE,133,6.0,8.0,39,0.00,,,0.00,,2013-03-02 20:21:00,
2013-03-02 11:31:00,40.0,18.0,29.74,SE,129,6.0,7.0,40,0.00,,,0.00,,2013-03-02 20:31:00,
2013-03-02 11:52:00,40.0,18.0,29.71,SE,126,7.0,0.0,40,0.00,,,0.00,,2013-03-02 20:52:00,
2013-03-02 12:02:00,41.0,18.0,29.71,ESE,121,6.0,0.0,39,0.00,,,0.00,,2013-03-02 21:02:00,
2013-03-02 12:21:00,42.0,18.0,29.71,ESE,118,7.0,11.0,38,0.00,,,0.00,,2013-03-02 21:21:00,
2013-03-02 12:31:00,42.0,19.0,29.71,ESE,118,7.0,8.0,39,0.00,,,0.00,,2013-03-02 21:31:00,
2013-03-02 12:41:00,42.0,19.0,29.71,ESE,118,7.0,8.0,39,0.00,,,0.00,,2013-03-02 21:41:00,
2013-03-02 12:52:00,42.0,18.0,29.71,ESE,118,7.0,11.0,38,0.00,,,0.00,,2013-03-02 21:52:00,
2013-03-02 13:01:00,42.0,18.0,29.71,ESE,119,7.0,0.0,37,0.00,,,0.00,,2013-03-02 22:01:00,
2013-03-02 13:21:00,42.0,18.0,29.71,SE,124,7.0,8.0,38,0.00,,,0.00,,2013-03-02 22:21:00,
2013-03-02 13:31:00,41.0,18.0,29.71,SE,126,8.0,8.0,39,0.00,,,0.00,,2013-03-02 22:31:00,
2013-03-02 13:52:00,42.0,19.0,29.71,SE,126,7.0,10.0,40,0.00,,,0.00,,2013-03-02 22:52:00,
2013-03-02 14:01:00,42.0,19.0,29.71,ESE,122,8.0,11.0,39,0.00,,,0.00,,2013-03-02 23:01:00,
2013-03-02 14:11:00,42.0,20.0,29.71,ESE,119,9.0,0.0,41,0.00,,,0.00,,2013-03-02 23:11:00,
2013-03-02 14:21:00,42.0,20.0,29.71,ESE,119,9.0,0.0,41,0.00,,,0.00,,2013-03-02 23:21:00,
2013-03-02 14:31:00,41.0,22.0,29.68,ESE,118,8.0,13.0,46,0.00,,,0.00,,2013-03-02 23:31:00,
2013-03-02 14:41:00,41.0,22.0,29.68,ESE,118,8.0,13.0,46,0.00,,,0.00,,2013-03-02 23:41:00,
2013-03-02 14:52:00,41.0,23.0,29.68,ESE,123,8.0,11.0,48,0.00,,,0.00,,2013-03-02 23:52:00,
2013-03-02 15:02:00,41.0,21.0,29.68,SE,125,9.0,0.0,45,0.00,,,0.00,,2013-03-03 00:02:00,
2013-03-02 15:11:00,41.0,21.0,29.68,SE,125,9.0,0.0,45,0.00,,,0.00,,2013-03-03 00:11:00,
2013-03-02 15:22:00,41.0,21.0,29.68,ESE,117,9.0,9.0,44,0.00,,,0.00,,2013-03-03 00:22:00,
2013-03-02 15:31:00,41.0,20.0,29.68,ESE,117,9.0,11.0,42,0.00,,,0.00,,2013-03-03 00:31:00,
2013-03-02 15:42:00,41.0,20.0,29.68,ESE,117,9.0,11.0,42,0.00,,,0.00,,2013-03-03 00:42:00,
2013-03-02 15:52:00,41.0,19.0,29.68,ESE,121,8.0,11.0,40,0.00,,,0.00,,2013-03-03 00:52:00,
2013-03-02 16:01:00,41.0,19.0,29.68,ESE,120,7.0,0.0,40,0.00,,,0.00,,2013-03-03 01:01:00,
2013-03-02 16:21:00,41.0,17.0,29.68,ESE,116,8.0,9.0,37,0.00,,,0.00,,2013-03-03 01:21:00,
2013-03-02 16:31:00,41.0,17.0,29.68,ESE,115,9.0,10.0,38,0.00,,,0.00,,2013-03-03 01:31:00,
2013-03-02 16:52:00,41.0,17.0,29.65,ESE,115,9.0,13.0,38,0.00,,,0.00,,2013-03-03 01:52:00,
2013-03-02 17:01:00,41.0,19.0,29.65,ESE,115,9.0,9.0,40,0.00,,,0.00,,2013-03-03 02:01:00,
2013-03-02 17:21:00,41.0,18.0,29.65,ESE,113,9.0,9.0,39,0.00,,,0.00,,2013-03-03 02:21:00,
2013-03-02 17:31:00,41.0,19.0,29.65,ESE,113,9.0,10.0,40,0.00,,,0.00,,2013-03-03 02:31:00,
2013-03-02 17:52:00,41.0,19.0,29.65,ESE,113,9.0,11.0,40,0.00,,,0.00,,2013-03-03 02:52:00,
2013-03-02 18:01:00,41.0,19.0,29.65,ESE,111,10.0,0.0,40,0.00,,,0.00,,2013-03-03 03:01:00,
2013-03-02 18:21:00,40.0,18.0,29.65,ESE,109,10.0,15.0,40,0.00,,,0.00,,2013-03-03 03:21:00,
2013-03-02 18:31:00,41.0,19.0,29.65,ESE,108,9.0,10.0,41,0.00,,,0.00,,2013-03-03 03:31:00,
2013-03-02 18:52:00,41.0,19.0,29.65,ESE,111,9.0,9.0,40,0.00,,,0.00,,2013-03-03 03:52:00,
2013-03-02 19:01:00,41.0,19.0,29.65,ESE,110,9.0,12.0,40,0.00,,,0.00,,2013-03-03 04:01:00,
2013-03-02 19:21:00,41.0,19.0,29.65,ESE,109,9.0,9.0,40,0.00,,,0.00,,2013-03-03 04:21:00,
2013-03-02 19:31:00,41.0,19.0,29.65,ESE,108,9.0,14.0,40,0.00,,,0.00,,2013-03-03 04:31:00,
2013-03-02 19:52:00,41.0,19.0,29.65,ESE,111,9.0,0.0,41,0.00,,,0.00,,2013-03-03 04:52:00,
2013-03-02 20:01:00,40.0,22.0,29.68,ESE,117,8.0,11.0,48,0.00,,,0.00,,2013-03-03 05:01:00,
2013-03-02 20:11:00,40.0,22.0,29.68,ESE,117,8.0,11.0,48,0.00,,,0.00,,2013-03-03 05:11:00,
2013-03-02 20:21:00,40.0,20.0,29.65,ESE,108,8.0,10.0,45,0.00,,,0.00,,2013-03-03 05:21:00,
2013-03-02 20:32:00,40.0,22.0,29.65,ESE,102,8.0,12.0,49,0.00,,,0.00,,2013-03-03 05:32:00,
2013-03-02 20:52:00,39.0,25.0,29.65,ESE,108,9.0,15.0,56,0.00,,,0.00,,2013-03-03 05:52:00,
2013-03-02 21:01:00,38.0,29.0,29.65,ESE,109,11.0,0.0,69,0.00,,,0.00,,2013-03-03 06:01:00,
2013-03-02 21:11:00,38.0,29.0,29.65,ESE,109,11.0,0.0,69,0.00,,,0.00,,2013-03-03 06:11:00,
2013-03-02 21:21:00,39.0,31.0,29.65,ESE,104,9.0,14.0,73,0.00,,,0.00,,2013-03-03 06:21:00,
2013-03-02 21:31:00,39.0,28.0,29.65,ESE,106,9.0,9.0,64,0.00,,,0.00,,2013-03-03 06:31:00,
2013-03-02 21:42:00,39.0,28.0,29.65,ESE,106,9.0,9.0,64,0.00,,,0.00,,2013-03-03 06:42:00,
2013-03-02 21:52:00,39.0,28.0,29.65,ESE,111,9.0,0.0,65,0.00,,,0.00,,2013-03-03 06:52:00,
2013-03-02 22:01:00,39.0,28.0,29.65,ESE,103,8.0,8.0,65,0.00,,,0.00,,2013-03-03 07:01:00,
2013-03-02 22:11:00,39.0,28.0,29.65,ESE,103,8.0,8.0,65,0.00,,,0.00,,2013-03-03 07:11:00,
2013-03-02 22:21:00,39.0,29.0,29.65,East,96,8.0,8.0,66,0.00,,,0.00,,2013-03-03 07:21:00,
2013-03-02 22:31:00,40.0,25.0,29.65,ESE,104,10.0,10.0,54,0.00,,,0.00,,2013-03-03 07:31:00,
2013-03-02 22:42:00,40.0,25.0,29.65,ESE,104,10.0,10.0,54,0.00,,,0.00,,2013-03-03 07:42:00,
2013-03-02 22:52:00,41.0,24.0,29.65,ESE,103,10.0,10.0,50,0.00,,,0.00,,2013-03-03 07:52:00,
2013-03-02 23:01:00,41.0,23.0,29.65,East,97,9.0,9.0,49,0.00,,,0.00,,2013-03-03 08:01:00,
2013-03-02 23:11:00,41.0,23.0,29.65,East,97,9.0,9.0,49,0.00,,,0.00,,2013-03-03 08:11:00,
2013-03-02 23:21:00,41.0,23.0,29.65,East,97,10.0,14.0,49,0.00,,,0.00,,2013-03-03 08:21:00,
2013-03-02 23:31:00,41.0,23.0,29.65,East,98,10.0,14.0,48,0.00,,,0.00,,2013-03-03 08:31:00,
2013-03-02 23:41:00,41.0,23.0,29.65,East,98,10.0,14.0,48,0.00,,,0.00,,2013-03-03 08:41:00,
2013-03-02 23:53:00,40.0,27.0,29.65,ESE,102,10.0,18.0,59,0.00,,,0.00,,2013-03-03 08:53:00,